Time;durP1;ratioP1;P1;durP2;ratioP2;P2;SDS_P1;SDS_P2;PMS_P1;PMS_P2;Temp;Humidity;BMP_temperature;BMP_pressure;BME280_temperature;BME280_humidity;BME280_pressure;Samples;Min_cycle;Max_cycle;Signal;HPM_P1;HPM_P2
2020/12/22 00:00:52;;;;;;;56.70;20.23;;;;;;;;;;5066708;28;20048;-68
2020/12/22 00:03:18;;;;;;;43.88;18.75;;;;;;;;;;5065498;28;20040;-68
2020/12/22 00:05:45;;;;;;;45.22;19.17;;;;;;;;;;5067178;28;20166;-68
2020/12/22 00:08:12;;;;;;;48.03;19.30;;;;;;;;;;5062803;28;20127;-68
2020/12/22 00:10:39;;;;;;;47.80;19.65;;;;;;;;;;5067990;28;20045;-68
2020/12/22 00:13:05;;;;;;;43.45;18.83;;;;;;;;;;5060168;28;20132;-68
2020/12/22 00:15:31;;;;;;;49.08;18.88;;;;;;;;;;5065638;28;20036;-68
2020/12/22 00:17:58;;;;;;;45.33;17.80;;;;;;;;;;5066748;28;20055;-68
2020/12/22 00:20:24;;;;;;;46.33;18.88;;;;;;;;;;5066987;28;20541;-69
2020/12/22 00:22:51;;;;;;;39.65;17.40;;;;;;;;;;5059441;28;20455;-69
2020/12/22 00:25:17;;;;;;;41.80;18.30;;;;;;;;;;5055401;28;20460;-68
2020/12/22 00:27:44;;;;;;;46.05;18.13;;;;;;;;;;5059314;28;20044;-68
2020/12/22 00:30:10;;;;;;;41.70;18.95;;;;;;;;;;5060837;28;20098;-68
2020/12/22 00:32:36;;;;;;;42.03;18.33;;;;;;;;;;5064022;28;20044;-69
2020/12/22 00:35:03;;;;;;;42.25;19.15;;;;;;;;;;5065405;28;20051;-68
2020/12/22 00:37:30;;;;;;;43.42;19.52;;;;;;;;;;5066757;28;20115;-68
2020/12/22 00:39:56;;;;;;;49.55;20.05;;;;;;;;;;5065201;28;20044;-69
2020/12/22 00:42:22;;;;;;;52.15;21.23;;;;;;;;;;5061546;28;20045;-68
2020/12/22 00:44:49;;;;;;;57.25;21.38;;;;;;;;;;5066513;28;20051;-68
2020/12/22 00:47:15;;;;;;;52.97;22.25;;;;;;;;;;5065424;28;20062;-68
2020/12/22 00:49:41;;;;;;;56.53;21.25;;;;;;;;;;5070512;28;20048;-68
2020/12/22 00:52:08;;;;;;;54.95;23.00;;;;;;;;;;5068850;28;20117;-68
2020/12/22 00:54:34;;;;;;;56.85;22.98;;;;;;;;;;5070812;28;20075;-68
2020/12/22 00:57:00;;;;;;;62.88;23.15;;;;;;;;;;5065317;28;20501;-68
2020/12/22 00:59:26;;;;;;;57.90;22.90;;;;;;;;;;5057982;28;20472;-68
2020/12/22 01:01:53;;;;;;;69.90;24.05;;;;;;;;;;5065869;28;20045;-68
2020/12/22 01:04:19;;;;;;;67.32;23.95;;;;;;;;;;5065707;28;20184;-68
2020/12/22 01:06:45;;;;;;;74.88;25.15;;;;;;;;;;5068650;28;20055;-68
2020/12/22 01:09:12;;;;;;;59.38;22.85;;;;;;;;;;5066680;28;20549;-68
2020/12/22 01:11:39;;;;;;;72.18;23.88;;;;;;;;;;5066255;28;20053;-68
2020/12/22 01:14:06;;;;;;;70.93;23.20;;;;;;;;;;5066950;28;20116;-68
2020/12/22 01:16:33;;;;;;;66.95;21.92;;;;;;;;;;5069332;28;20116;-68
2020/12/22 01:18:59;;;;;;;64.80;21.42;;;;;;;;;;5062898;28;20064;-68
2020/12/22 01:21:25;;;;;;;69.07;20.00;;;;;;;;;;5047238;28;20106;-69
2020/12/22 01:23:52;;;;;;;53.47;17.45;;;;;;;;;;5041070;28;20064;-69
2020/12/22 01:26:19;;;;;;;40.42;15.68;;;;;;;;;;5041580;28;20099;-69
2020/12/22 01:28:45;;;;;;;38.85;13.38;;;;;;;;;;5048944;28;20040;-68
2020/12/22 01:31:11;;;;;;;35.72;11.38;;;;;;;;;;5075144;28;20043;-68
2020/12/22 01:33:38;;;;;;;25.38;8.65;;;;;;;;;;5066150;28;20052;-69
2020/12/22 01:36:04;;;;;;;28.70;9.10;;;;;;;;;;5063886;28;20045;-69
2020/12/22 01:38:30;;;;;;;20.75;8.13;;;;;;;;;;5063398;28;20120;-69
2020/12/22 01:40:57;;;;;;;27.13;7.50;;;;;;;;;;5067436;28;20040;-69
2020/12/22 01:43:23;;;;;;;14.95;6.30;;;;;;;;;;5071384;28;20488;-68
2020/12/22 01:45:49;;;;;;;17.42;5.82;;;;;;;;;;5069239;28;20109;-69
2020/12/22 01:48:16;;;;;;;19.38;6.22;;;;;;;;;;5074904;28;20143;-69
2020/12/22 01:50:42;;;;;;;14.10;5.68;;;;;;;;;;5065874;28;20060;-68
2020/12/22 01:53:08;;;;;;;15.13;5.43;;;;;;;;;;5059445;28;20490;-68
2020/12/22 01:55:34;;;;;;;12.60;5.40;;;;;;;;;;5063128;28;20043;-69
2020/12/22 01:58:01;;;;;;;17.20;4.97;;;;;;;;;;5068398;28;20053;-68
2020/12/22 02:00:27;;;;;;;12.30;5.00;;;;;;;;;;5061812;28;20270;-68
2020/12/22 02:02:53;;;;;;;10.30;4.22;;;;;;;;;;5065178;28;20068;-69
2020/12/22 02:05:20;;;;;;;7.90;3.65;;;;;;;;;;5068413;28;20115;-69
2020/12/22 02:07:46;;;;;;;9.15;4.28;;;;;;;;;;5066111;28;20090;-68
2020/12/22 02:10:13;;;;;;;11.85;3.55;;;;;;;;;;5060985;28;20460;-69
2020/12/22 02:12:40;;;;;;;11.73;3.95;;;;;;;;;;5070790;28;20041;-69
2020/12/22 02:15:07;;;;;;;13.07;4.07;;;;;;;;;;5057292;28;20048;-69
2020/12/22 02:17:34;;;;;;;10.55;4.45;;;;;;;;;;5067252;28;20414;-68
2020/12/22 02:20:01;;;;;;;11.95;4.05;;;;;;;;;;5064003;28;20064;-69
2020/12/22 02:22:28;;;;;;;10.00;4.07;;;;;;;;;;5060565;28;20045;-69
2020/12/22 02:24:54;;;;;;;12.90;4.57;;;;;;;;;;5059983;28;20251;-69
2020/12/22 02:27:20;;;;;;;10.80;4.60;;;;;;;;;;5070062;28;20041;-69
2020/12/22 02:29:47;;;;;;;12.45;4.32;;;;;;;;;;5064311;28;20045;-68
2020/12/22 02:32:13;;;;;;;16.48;4.57;;;;;;;;;;5069134;28;20055;-69
2020/12/22 02:34:39;;;;;;;16.75;4.82;;;;;;;;;;5065392;28;20047;-69
2020/12/22 02:37:06;;;;;;;15.82;5.00;;;;;;;;;;5063364;28;20051;-69
2020/12/22 02:39:32;;;;;;;17.00;6.53;;;;;;;;;;5065992;28;20048;-69
2020/12/22 02:41:58;;;;;;;20.40;8.35;;;;;;;;;;5062725;28;20437;-68
2020/12/22 02:44:24;;;;;;;21.90;7.47;;;;;;;;;;5066080;28;20045;-69
2020/12/22 02:46:51;;;;;;;17.90;7.70;;;;;;;;;;5062535;28;20090;-69
2020/12/22 02:49:17;;;;;;;19.13;7.40;;;;;;;;;;5068015;28;20040;-69
2020/12/22 02:51:43;;;;;;;20.70;8.88;;;;;;;;;;5060877;28;20060;-69
2020/12/22 02:54:09;;;;;;;19.25;9.30;;;;;;;;;;5063242;28;20175;-69
2020/12/22 02:56:36;;;;;;;22.38;9.30;;;;;;;;;;5063041;28;20119;-69
2020/12/22 02:59:02;;;;;;;23.10;8.27;;;;;;;;;;5066468;28;20040;-69
2020/12/22 03:01:28;;;;;;;24.10;8.57;;;;;;;;;;5065390;28;20049;-69
2020/12/22 03:03:55;;;;;;;19.15;8.07;;;;;;;;;;5066355;28;20036;-69
2020/12/22 03:06:21;;;;;;;16.48;6.28;;;;;;;;;;5072333;28;20160;-69
2020/12/22 03:08:48;;;;;;;13.93;5.18;;;;;;;;;;5062442;28;20053;-69
2020/12/22 03:11:15;;;;;;;12.18;5.18;;;;;;;;;;5062157;28;20042;-69
2020/12/22 03:13:41;;;;;;;13.82;5.18;;;;;;;;;;5069134;28;20044;-70
2020/12/22 03:16:07;;;;;;;20.52;5.32;;;;;;;;;;5056695;28;20048;-69
2020/12/22 03:18:33;;;;;;;26.05;6.80;;;;;;;;;;5061282;28;20037;-69
2020/12/22 03:21:00;;;;;;;29.27;9.65;;;;;;;;;;5051681;28;20051;-69
2020/12/22 03:23:26;;;;;;;38.83;11.23;;;;;;;;;;5041715;28;20045;-69
2020/12/22 03:25:52;;;;;;;36.22;10.60;;;;;;;;;;5054369;28;20061;-69
2020/12/22 03:28:19;;;;;;;35.90;11.70;;;;;;;;;;5041041;28;20064;-69
2020/12/22 03:30:45;;;;;;;37.33;12.00;;;;;;;;;;5056916;28;20041;-68
2020/12/22 03:33:11;;;;;;;39.45;11.98;;;;;;;;;;5064707;28;20093;-68
2020/12/22 03:35:38;;;;;;;41.80;11.48;;;;;;;;;;5066064;28;20041;-68
2020/12/22 03:38:04;;;;;;;46.92;11.18;;;;;;;;;;5069294;28;20325;-68
2020/12/22 03:40:30;;;;;;;32.65;10.07;;;;;;;;;;5071613;28;20052;-69
2020/12/22 03:42:56;;;;;;;34.97;11.25;;;;;;;;;;5062789;28;20491;-69
2020/12/22 03:45:23;;;;;;;37.75;10.32;;;;;;;;;;5059507;28;20456;-69
2020/12/22 03:47:49;;;;;;;51.47;11.93;;;;;;;;;;5075853;28;20392;-68
2020/12/22 03:50:16;;;;;;;37.55;11.15;;;;;;;;;;5062228;28;20393;-69
2020/12/22 03:52:42;;;;;;;35.50;9.27;;;;;;;;;;5063357;28;20045;-69
2020/12/22 03:55:08;;;;;;;35.47;9.10;;;;;;;;;;5067278;28;20099;-69
2020/12/22 03:57:34;;;;;;;39.00;8.77;;;;;;;;;;5069394;28;20067;-69
2020/12/22 04:00:01;;;;;;;34.70;8.18;;;;;;;;;;5070241;28;20045;-69
2020/12/22 04:02:27;;;;;;;27.73;6.72;;;;;;;;;;5069721;28;20081;-69
2020/12/22 04:04:53;;;;;;;34.67;6.63;;;;;;;;;;5078333;28;20040;-68
2020/12/22 04:07:21;;;;;;;36.78;6.32;;;;;;;;;;5082993;28;20735;-69
2020/12/22 04:09:47;;;;;;;31.15;7.10;;;;;;;;;;5072101;28;20094;-69
2020/12/22 04:12:14;;;;;;;30.92;6.00;;;;;;;;;;5068098;28;20076;-69
2020/12/22 04:14:41;;;;;;;26.88;7.05;;;;;;;;;;5061383;28;20119;-69
2020/12/22 04:17:07;;;;;;;33.50;6.28;;;;;;;;;;5060245;28;20051;-69
2020/12/22 04:19:33;;;;;;;20.23;5.00;;;;;;;;;;5062706;28;20437;-69
2020/12/22 04:22:00;;;;;;;28.88;5.63;;;;;;;;;;5062938;28;20048;-69
2020/12/22 04:24:26;;;;;;;28.33;4.93;;;;;;;;;;5067888;28;20048;-69
2020/12/22 04:26:52;;;;;;;27.92;5.60;;;;;;;;;;5066412;28;20071;-69
2020/12/22 04:29:18;;;;;;;30.63;5.07;;;;;;;;;;5066647;28;20041;-69
2020/12/22 04:31:45;;;;;;;31.08;4.50;;;;;;;;;;5062807;28;20040;-69
2020/12/22 04:34:11;;;;;;;30.55;5.57;;;;;;;;;;5067598;28;20035;-68
2020/12/22 04:36:37;;;;;;;22.65;4.03;;;;;;;;;;5065657;28;20037;-69
2020/12/22 04:39:04;;;;;;;28.27;5.40;;;;;;;;;;5061151;28;20033;-69
2020/12/22 04:41:31;;;;;;;32.67;4.95;;;;;;;;;;5063174;28;20456;-68
2020/12/22 04:43:58;;;;;;;23.65;4.18;;;;;;;;;;5064785;28;20040;-69
2020/12/22 04:46:25;;;;;;;36.63;6.45;;;;;;;;;;5058233;28;20546;-69
2020/12/22 04:48:53;;;;;;;31.80;4.38;;;;;;;;;;5060683;28;20090;-69
2020/12/22 04:51:20;;;;;;;35.53;4.95;;;;;;;;;;5062740;28;20045;-69
2020/12/22 04:53:46;;;;;;;28.52;4.82;;;;;;;;;;5067995;28;20514;-68
2020/12/22 04:56:13;;;;;;;34.80;4.75;;;;;;;;;;5067669;28;20040;-69
2020/12/22 04:58:40;;;;;;;35.67;5.63;;;;;;;;;;5065757;28;20064;-69
2020/12/22 05:01:06;;;;;;;42.20;5.88;;;;;;;;;;5070522;28;20052;-69
2020/12/22 05:03:32;;;;;;;46.03;5.95;;;;;;;;;;5070691;28;20505;-69
2020/12/22 05:05:58;;;;;;;39.38;7.82;;;;;;;;;;5057882;28;20096;-69
2020/12/22 05:08:25;;;;;;;34.90;5.90;;;;;;;;;;5063548;28;20111;-69
2020/12/22 05:10:52;;;;;;;33.20;5.00;;;;;;;;;;5065964;28;20049;-68
2020/12/22 05:13:20;;;;;;;35.75;5.20;;;;;;;;;;5058783;28;20122;-69
2020/12/22 05:15:49;;;;;;;36.88;4.70;;;;;;;;;;5058569;28;20136;-69
2020/12/22 05:18:16;;;;;;;33.88;5.50;;;;;;;;;;5067092;28;20212;-69
2020/12/22 05:20:45;;;;;;;31.60;4.68;;;;;;;;;;5059798;28;20135;-69
2020/12/22 05:23:14;;;;;;;33.85;5.20;;;;;;;;;;5045486;28;20546;-69
2020/12/22 05:25:41;;;;;;;34.55;5.07;;;;;;;;;;5056099;28;20040;-69
2020/12/22 05:28:08;;;;;;;47.55;6.00;;;;;;;;;;5041529;28;20124;-69
2020/12/22 05:30:36;;;;;;;33.80;5.50;;;;;;;;;;5040114;28;20101;-69
2020/12/22 05:33:03;;;;;;;37.72;7.05;;;;;;;;;;5066856;28;20041;-68
2020/12/22 05:35:33;;;;;;;30.60;5.25;;;;;;;;;;5062857;28;20051;-69
2020/12/22 05:38:01;;;;;;;25.27;4.78;;;;;;;;;;5060219;28;20044;-69
2020/12/22 05:40:27;;;;;;;33.20;5.65;;;;;;;;;;5061647;28;20044;-69
2020/12/22 05:42:54;;;;;;;35.92;5.40;;;;;;;;;;5065309;28;20037;-69
2020/12/22 05:45:20;;;;;;;41.45;5.78;;;;;;;;;;5065178;28;20066;-69
2020/12/22 05:47:46;;;;;;;29.65;5.57;;;;;;;;;;5067452;28;20033;-69
2020/12/22 05:50:13;;;;;;;31.60;4.45;;;;;;;;;;5066408;28;20408;-69
2020/12/22 05:52:41;;;;;;;30.45;4.95;;;;;;;;;;5064875;28;20429;-69
2020/12/22 05:55:10;;;;;;;29.42;5.03;;;;;;;;;;5079147;28;20151;-69
2020/12/22 05:57:37;;;;;;;28.63;5.32;;;;;;;;;;5061614;28;20037;-69
2020/12/22 06:00:15;;;;;;;39.25;6.05;;;;;;;;;;5070871;28;20032;-69
2020/12/22 06:02:41;;;;;;;29.75;5.03;;;;;;;;;;5064137;28;20045;-69
2020/12/22 06:05:08;;;;;;;24.50;5.07;;;;;;;;;;5061186;28;20048;-69
2020/12/22 06:07:34;;;;;;;29.92;4.57;;;;;;;;;;5064636;28;20040;-69
2020/12/22 06:10:01;;;;;;;35.67;4.55;;;;;;;;;;5062097;28;20094;-69
2020/12/22 06:12:28;;;;;;;33.00;5.60;;;;;;;;;;5064382;28;20530;-68
2020/12/22 06:14:55;;;;;;;25.80;4.30;;;;;;;;;;5060333;28;20751;-69
2020/12/22 06:17:22;;;;;;;25.77;5.88;;;;;;;;;;5054904;28;20037;-69
2020/12/22 06:19:49;;;;;;;33.95;5.90;;;;;;;;;;5059161;28;20049;-69
2020/12/22 06:22:16;;;;;;;24.73;5.30;;;;;;;;;;5061879;28;20068;-69
2020/12/22 06:24:43;;;;;;;26.05;5.97;;;;;;;;;;5065455;28;20049;-69
2020/12/22 06:27:10;;;;;;;28.42;4.70;;;;;;;;;;5064702;28;20048;-69
2020/12/22 06:29:40;;;;;;;32.90;4.65;;;;;;;;;;5068562;28;20051;-68
2020/12/22 06:32:16;;;;;;;23.73;3.72;;;;;;;;;;5062487;28;20051;-70
2020/12/22 06:34:43;;;;;;;37.92;4.50;;;;;;;;;;5073771;28;20061;-69
2020/12/22 06:37:10;;;;;;;29.75;4.63;;;;;;;;;;5068234;28;20123;-70
2020/12/22 06:39:44;;;;;;;29.48;4.75;;;;;;;;;;5069094;28;20104;-69
2020/12/22 06:42:11;;;;;;;24.00;4.07;;;;;;;;;;5064921;28;20068;-68
2020/12/22 06:44:37;;;;;;;28.55;4.20;;;;;;;;;;5067048;28;20036;-68
2020/12/22 06:47:05;;;;;;;32.55;4.15;;;;;;;;;;5061913;28;20043;-68
2020/12/22 06:49:46;;;;;;;36.88;5.05;;;;;;;;;;5063700;28;20028;-69
2020/12/22 06:52:34;;;;;;;35.75;5.28;;;;;;;;;;5068102;28;20064;-67
2020/12/22 06:55:00;;;;;;;31.27;4.50;;;;;;;;;;5077445;28;20415;-67
2020/12/22 06:57:42;;;;;;;29.15;4.85;;;;;;;;;;5070722;28;20100;-67
2020/12/22 07:00:10;;;;;;;35.10;4.95;;;;;;;;;;5072994;28;20049;-66
2020/12/22 07:02:36;;;;;;;27.27;3.78;;;;;;;;;;5072869;28;20492;-66
2020/12/22 07:05:05;;;;;;;32.08;4.43;;;;;;;;;;5072636;28;20044;-67
2020/12/22 07:07:50;;;;;;;25.92;4.00;;;;;;;;;;5073389;28;20036;-65
2020/12/22 07:10:16;;;;;;;24.60;4.43;;;;;;;;;;5077838;28;20045;-66
2020/12/22 07:12:44;;;;;;;31.63;4.85;;;;;;;;;;5074205;28;20110;-65
2020/12/22 07:15:11;;;;;;;23.70;6.47;;;;;;;;;;5069573;28;20132;-66
2020/12/22 07:17:38;;;;;;;29.77;4.38;;;;;;;;;;5071953;28;20048;-69
2020/12/22 07:20:04;;;;;;;34.33;6.00;;;;;;;;;;5079596;28;20552;-69
2020/12/22 07:22:30;;;;;;;27.77;5.40;;;;;;;;;;5069777;28;20068;-66
2020/12/22 07:24:57;;;;;;;33.42;5.93;;;;;;;;;;5070549;28;20040;-66
2020/12/22 07:27:23;;;;;;;32.40;6.35;;;;;;;;;;5075947;28;20124;-66
2020/12/22 07:29:49;;;;;;;37.45;7.93;;;;;;;;;;5064259;28;20054;-66
2020/12/22 07:32:17;;;;;;;36.22;7.60;;;;;;;;;;5070305;28;20077;-66
2020/12/22 07:34:43;;;;;;;29.50;6.85;;;;;;;;;;5069510;28;20086;-66
2020/12/22 07:37:11;;;;;;;28.70;7.20;;;;;;;;;;5070354;28;20044;-66
2020/12/22 07:39:38;;;;;;;32.33;5.97;;;;;;;;;;5074814;28;20124;-68
2020/12/22 07:42:12;;;;;;;13.68;3.88;;;;;;;;;;5069833;28;20044;-66
2020/12/22 07:44:39;;;;;;;8.80;3.50;;;;;;;;;;5071869;28;20076;-66
2020/12/22 07:47:05;;;;;;;9.65;4.22;;;;;;;;;;5078276;28;20395;-66
2020/12/22 07:49:32;;;;;;;19.08;6.57;;;;;;;;;;5071621;28;20032;-66
2020/12/22 07:51:58;;;;;;;16.80;6.70;;;;;;;;;;5077578;28;20119;-69
2020/12/22 07:54:30;;;;;;;17.70;7.32;;;;;;;;;;5076659;28;20090;-66
2020/12/22 07:56:59;;;;;;;14.65;6.65;;;;;;;;;;5068545;28;20447;-65
2020/12/22 07:59:26;;;;;;;12.10;5.60;;;;;;;;;;5084125;28;20346;-65
2020/12/22 08:01:52;;;;;;;16.42;6.75;;;;;;;;;;5080953;28;20040;-66
2020/12/22 08:04:24;;;;;;;14.77;5.50;;;;;;;;;;5087084;28;20479;-67
2020/12/22 08:06:56;;;;;;;13.50;5.65;;;;;;;;;;5070339;28;20036;-66
2020/12/22 08:09:27;;;;;;;19.67;6.22;;;;;;;;;;5077205;28;20037;-66
2020/12/22 08:11:55;;;;;;;16.85;6.15;;;;;;;;;;5077072;28;20044;-68
2020/12/22 08:14:22;;;;;;;11.88;5.05;;;;;;;;;;5083475;28;20051;-68
2020/12/22 08:16:51;;;;;;;13.10;5.80;;;;;;;;;;5074021;28;20075;-68
2020/12/22 08:19:17;;;;;;;22.10;6.28;;;;;;;;;;5065418;28;20036;-68
2020/12/22 08:21:44;;;;;;;18.13;7.03;;;;;;;;;;5073945;28;20044;-68
2020/12/22 08:24:11;;;;;;;21.08;8.55;;;;;;;;;;5080515;28;20044;-67
2020/12/22 08:26:37;;;;;;;13.00;6.82;;;;;;;;;;5073451;28;20048;-68
2020/12/22 08:29:03;;;;;;;22.45;7.47;;;;;;;;;;5068443;28;20048;-68
2020/12/22 08:31:33;;;;;;;25.05;8.55;;;;;;;;;;5086002;28;20045;-68
2020/12/22 08:34:03;;;;;;;28.90;8.18;;;;;;;;;;5071396;28;20045;-68
2020/12/22 08:36:29;;;;;;;18.80;7.90;;;;;;;;;;5070354;28;20048;-68
2020/12/22 08:39:12;;;;;;;23.33;8.05;;;;;;;;;;5074844;28;20058;-68
2020/12/22 08:41:40;;;;;;;19.63;5.40;;;;;;;;;;5072887;28;20048;-68
2020/12/22 08:44:06;;;;;;;19.35;6.20;;;;;;;;;;5086917;28;20040;-68
2020/12/22 08:46:32;;;;;;;16.05;6.07;;;;;;;;;;5078614;28;20064;-68
2020/12/22 08:49:07;;;;;;;16.27;5.55;;;;;;;;;;5073361;28;20063;-68
2020/12/22 08:51:33;;;;;;;24.80;6.25;;;;;;;;;;5079219;28;20047;-68
2020/12/22 08:54:01;;;;;;;17.88;5.70;;;;;;;;;;5085700;28;20067;-66
2020/12/22 08:56:27;;;;;;;24.33;6.05;;;;;;;;;;5073089;28;20071;-66
2020/12/22 08:58:54;;;;;;;18.25;5.25;;;;;;;;;;5074341;28;20040;-66
2020/12/22 09:01:22;;;;;;;16.60;4.45;;;;;;;;;;5076240;28;20064;-66
2020/12/22 09:03:50;;;;;;;21.60;5.55;;;;;;;;;;5074387;28;20052;-66
2020/12/22 09:06:17;;;;;;;13.82;4.00;;;;;;;;;;5080923;28;20403;-66
2020/12/22 09:08:45;;;;;;;15.23;3.58;;;;;;;;;;5082673;28;20056;-66
2020/12/22 09:11:18;;;;;;;18.77;3.63;;;;;;;;;;5077210;28;20124;-66
2020/12/22 09:13:45;;;;;;;13.63;3.40;;;;;;;;;;5069491;28;20075;-66
2020/12/22 09:16:11;;;;;;;14.52;3.70;;;;;;;;;;5078567;28;20558;-66
2020/12/22 09:18:38;;;;;;;18.80;3.13;;;;;;;;;;5070766;28;20158;-67
2020/12/22 09:21:05;;;;;;;13.82;2.72;;;;;;;;;;5055638;28;20041;-67
2020/12/22 09:23:32;;;;;;;14.35;3.08;;;;;;;;;;5061459;28;20041;-66
2020/12/22 09:25:58;;;;;;;17.45;2.88;;;;;;;;;;5052777;28;20044;-66
2020/12/22 09:28:24;;;;;;;10.45;2.50;;;;;;;;;;5054529;28;20040;-66
2020/12/22 09:30:51;;;;;;;10.68;2.33;;;;;;;;;;5072249;28;20041;-66
2020/12/22 09:33:17;;;;;;;8.15;2.03;;;;;;;;;;5071736;28;20044;-66
2020/12/22 09:35:43;;;;;;;10.75;2.13;;;;;;;;;;5072570;28;20462;-66
2020/12/22 09:38:10;;;;;;;10.68;2.00;;;;;;;;;;5082658;28;20131;-66
2020/12/22 09:40:36;;;;;;;9.18;2.33;;;;;;;;;;5075729;28;20044;-67
2020/12/22 09:43:02;;;;;;;16.05;2.58;;;;;;;;;;5066389;28;20052;-66
2020/12/22 09:45:28;;;;;;;11.73;2.08;;;;;;;;;;5060695;28;20151;-66
2020/12/22 09:47:55;;;;;;;12.75;2.33;;;;;;;;;;5071835;28;20405;-66
2020/12/22 09:50:21;;;;;;;18.25;3.42;;;;;;;;;;5071233;28;20044;-80
2020/12/22 09:52:47;;;;;;;11.57;2.03;;;;;;;;;;5060993;28;20479;-66
2020/12/22 09:55:14;;;;;;;16.33;1.90;;;;;;;;;;5064395;28;20150;-67
2020/12/22 09:57:40;;;;;;;11.50;1.65;;;;;;;;;;5066038;28;20472;-66
2020/12/22 10:00:06;;;;;;;14.48;1.80;;;;;;;;;;5072035;28;20090;-66
2020/12/22 10:02:33;;;;;;;13.98;2.08;;;;;;;;;;5075508;28;20471;-66
2020/12/22 10:04:59;;;;;;;8.98;1.83;;;;;;;;;;5069588;28;20497;-66
2020/12/22 10:07:25;;;;;;;11.82;2.25;;;;;;;;;;5071726;28;20048;-66
2020/12/22 10:09:52;;;;;;;12.35;1.95;;;;;;;;;;5078917;28;20048;-66
2020/12/22 10:12:18;;;;;;;18.48;2.08;;;;;;;;;;5066459;28;20051;-66
2020/12/22 10:14:44;;;;;;;17.05;2.05;;;;;;;;;;5058590;28;20059;-66
2020/12/22 10:17:11;;;;;;;20.75;2.00;;;;;;;;;;5057842;28;20455;-66
2020/12/22 10:19:38;;;;;;;13.57;3.17;;;;;;;;;;5057341;28;20496;-66
2020/12/22 10:22:04;;;;;;;12.57;1.73;;;;;;;;;;5060771;28;20051;-66
2020/12/22 10:24:30;;;;;;;12.50;1.80;;;;;;;;;;5068794;28;20086;-66
2020/12/22 10:26:56;;;;;;;11.63;2.03;;;;;;;;;;5061916;28;20072;-66
2020/12/22 10:29:23;;;;;;;12.85;1.77;;;;;;;;;;5070427;28;20111;-66
2020/12/22 10:31:49;;;;;;;13.00;1.80;;;;;;;;;;5064756;28;20100;-66
2020/12/22 10:34:15;;;;;;;12.73;1.88;;;;;;;;;;5070015;28;20405;-67
2020/12/22 10:36:46;;;;;;;18.75;2.83;;;;;;;;;;5074574;28;20113;-66
2020/12/22 10:39:12;;;;;;;14.48;1.60;;;;;;;;;;5061101;28;20048;-66
2020/12/22 10:41:38;;;;;;;16.75;2.08;;;;;;;;;;5063334;28;20526;-66
2020/12/22 10:44:05;;;;;;;8.57;1.42;;;;;;;;;;5066884;28;20098;-66
2020/12/22 10:46:31;;;;;;;10.80;2.08;;;;;;;;;;5059629;28;20121;-66
2020/12/22 10:48:58;;;;;;;16.42;2.80;;;;;;;;;;5057055;28;20045;-67
2020/12/22 10:51:25;;;;;;;13.07;2.17;;;;;;;;;;5069008;28;20054;-66
2020/12/22 10:53:51;;;;;;;15.50;1.80;;;;;;;;;;5068902;28;20493;-66
2020/12/22 10:56:17;;;;;;;13.95;2.10;;;;;;;;;;5057425;28;20130;-66
2020/12/22 10:58:44;;;;;;;14.18;1.80;;;;;;;;;;5060327;28;20076;-66
2020/12/22 11:01:16;;;;;;;15.02;1.70;;;;;;;;;;5067930;28;20123;-66
2020/12/22 11:03:43;;;;;;;11.77;2.42;;;;;;;;;;5068613;28;20064;-69
2020/12/22 11:06:20;;;;;;;10.82;2.08;;;;;;;;;;5065488;28;20480;-66
2020/12/22 11:08:47;;;;;;;13.82;2.05;;;;;;;;;;5062125;28;20534;-65
2020/12/22 11:11:14;;;;;;;12.55;2.17;;;;;;;;;;5062355;28;20072;-66
2020/12/22 11:13:40;;;;;;;10.05;1.92;;;;;;;;;;5057647;28;20037;-66
2020/12/22 11:16:07;;;;;;;10.27;1.95;;;;;;;;;;5050392;28;20045;-65
2020/12/22 11:18:34;;;;;;;16.48;1.90;;;;;;;;;;5054874;28;20104;-65
2020/12/22 11:21:01;;;;;;;11.30;2.13;;;;;;;;;;5061269;28;20565;-65
2020/12/22 11:23:28;;;;;;;12.98;1.60;;;;;;;;;;5069021;28;20037;-65
2020/12/22 11:25:54;;;;;;;12.35;1.67;;;;;;;;;;5081367;28;20064;-66
2020/12/22 11:28:20;;;;;;;11.10;1.60;;;;;;;;;;5063628;28;20041;-65
2020/12/22 11:30:47;;;;;;;6.25;1.80;;;;;;;;;;5069468;28;20163;-65
2020/12/22 11:33:13;;;;;;;6.47;1.55;;;;;;;;;;5060936;28;20378;-65
2020/12/22 11:35:39;;;;;;;13.55;2.08;;;;;;;;;;5066541;28;20062;-65
2020/12/22 11:38:07;;;;;;;11.18;1.80;;;;;;;;;;5065274;28;20101;-66
2020/12/22 11:40:34;;;;;;;14.20;1.75;;;;;;;;;;5057601;28;20056;-66
2020/12/22 11:43:00;;;;;;;8.02;1.90;;;;;;;;;;5059171;28;20036;-66
2020/12/22 11:45:26;;;;;;;8.57;2.33;;;;;;;;;;5064157;28;20041;-66
2020/12/22 11:47:53;;;;;;;13.00;2.25;;;;;;;;;;5058113;28;20041;-66
2020/12/22 11:50:19;;;;;;;12.13;2.95;;;;;;;;;;5068894;28;20040;-66
2020/12/22 11:52:45;;;;;;;11.80;1.80;;;;;;;;;;5069481;28;20060;-66
2020/12/22 11:55:12;;;;;;;12.45;2.47;;;;;;;;;;5070434;28;20040;-66
2020/12/22 11:57:38;;;;;;;17.35;2.47;;;;;;;;;;5061766;28;20052;-66
2020/12/22 12:00:06;;;;;;;11.77;2.35;;;;;;;;;;5065090;28;20048;-65
2020/12/22 12:02:32;;;;;;;19.02;2.58;;;;;;;;;;5067525;28;20067;-65
2020/12/22 12:04:59;;;;;;;10.68;1.92;;;;;;;;;;5063259;28;20063;-66
2020/12/22 12:07:25;;;;;;;12.57;2.38;;;;;;;;;;5063948;28;20515;-66
2020/12/22 12:09:52;;;;;;;11.70;2.30;;;;;;;;;;5063929;28;20073;-65
2020/12/22 12:12:18;;;;;;;8.95;1.50;;;;;;;;;;5054878;28;20047;-66
2020/12/22 12:14:44;;;;;;;10.50;1.98;;;;;;;;;;5069844;28;20123;-66
2020/12/22 12:17:11;;;;;;;6.60;1.50;;;;;;;;;;5061344;28;20513;-66
2020/12/22 12:19:37;;;;;;;12.63;1.48;;;;;;;;;;5072468;28;20068;-66
2020/12/22 12:22:04;;;;;;;6.63;1.50;;;;;;;;;;5074515;28;20449;-66
2020/12/22 12:24:30;;;;;;;7.55;1.38;;;;;;;;;;5064791;28;20112;-66
2020/12/22 12:26:56;;;;;;;15.63;1.40;;;;;;;;;;5061768;28;20131;-65
2020/12/22 12:29:23;;;;;;;10.70;1.55;;;;;;;;;;5065493;28;20036;-65
2020/12/22 12:31:49;;;;;;;19.33;3.22;;;;;;;;;;5065200;28;20235;-65
2020/12/22 12:34:16;;;;;;;13.85;2.53;;;;;;;;;;5064830;28;20199;-65
2020/12/22 12:36:42;;;;;;;14.13;1.67;;;;;;;;;;5060681;28;20151;-65
2020/12/22 12:39:09;;;;;;;13.60;2.08;;;;;;;;;;5071574;28;20044;-66
2020/12/22 12:41:36;;;;;;;11.75;2.33;;;;;;;;;;5056151;28;20037;-66
2020/12/22 12:44:02;;;;;;;13.85;3.05;;;;;;;;;;5056354;28;20135;-65
2020/12/22 12:46:28;;;;;;;19.67;3.35;;;;;;;;;;5067269;28;20045;-65
2020/12/22 12:48:55;;;;;;;12.18;2.30;;;;;;;;;;5055760;28;20424;-65
2020/12/22 12:51:21;;;;;;;9.88;1.98;;;;;;;;;;5055956;28;20045;-65
2020/12/22 12:53:48;;;;;;;12.27;1.95;;;;;;;;;;5063816;28;20573;-65
2020/12/22 12:56:15;;;;;;;18.00;2.60;;;;;;;;;;5055197;28;20047;-65
2020/12/22 12:58:42;;;;;;;15.80;2.72;;;;;;;;;;5055752;28;20408;-66
2020/12/22 13:01:10;;;;;;;18.40;2.42;;;;;;;;;;5055587;28;20069;-65
2020/12/22 13:03:37;;;;;;;12.55;2.05;;;;;;;;;;5062431;28;20041;-66
2020/12/22 13:06:06;;;;;;;15.88;2.78;;;;;;;;;;5061414;28;20094;-65
2020/12/22 13:08:32;;;;;;;18.95;2.78;;;;;;;;;;5059075;28;20075;-65
2020/12/22 13:10:58;;;;;;;19.83;3.33;;;;;;;;;;5061873;28;20059;-65
2020/12/22 13:13:25;;;;;;;17.13;2.65;;;;;;;;;;5063829;28;20069;-65
2020/12/22 13:15:51;;;;;;;11.68;2.03;;;;;;;;;;5057294;28;20041;-65
2020/12/22 13:18:18;;;;;;;17.33;3.00;;;;;;;;;;5055883;28;20047;-65
2020/12/22 13:20:44;;;;;;;17.60;1.90;;;;;;;;;;5051586;28;20075;-65
2020/12/22 13:23:11;;;;;;;17.25;4.13;;;;;;;;;;5058840;28;20049;-66
2020/12/22 13:25:38;;;;;;;9.80;1.75;;;;;;;;;;5059319;28;20053;-66
2020/12/22 13:28:05;;;;;;;18.85;2.95;;;;;;;;;;5055067;28;20136;-66
2020/12/22 13:30:31;;;;;;;13.35;2.30;;;;;;;;;;5056566;28;20529;-66
2020/12/22 13:32:59;;;;;;;12.10;2.15;;;;;;;;;;5051935;28;20045;-66
2020/12/22 13:35:25;;;;;;;17.60;2.42;;;;;;;;;;5050809;28;20036;-66
2020/12/22 13:37:52;;;;;;;16.17;2.15;;;;;;;;;;5052248;28;20048;-66
2020/12/22 13:40:19;;;;;;;16.13;2.72;;;;;;;;;;5066561;28;20490;-68
2020/12/22 13:42:45;;;;;;;15.75;2.75;;;;;;;;;;5052780;28;20049;-68
2020/12/22 13:45:11;;;;;;;15.15;2.20;;;;;;;;;;5055794;28;20475;-68
2020/12/22 13:47:38;;;;;;;11.18;2.13;;;;;;;;;;5055855;28;20111;-68
2020/12/22 13:50:04;;;;;;;13.07;2.80;;;;;;;;;;5051052;28;20468;-68
2020/12/22 13:52:31;;;;;;;12.02;1.80;;;;;;;;;;5056502;28;20052;-68
2020/12/22 13:54:58;;;;;;;14.52;2.83;;;;;;;;;;5058644;28;20094;-68
2020/12/22 13:57:24;;;;;;;22.92;4.55;;;;;;;;;;5063598;28;20037;-68
2020/12/22 13:59:50;;;;;;;14.85;2.50;;;;;;;;;;5061349;28;20047;-69
2020/12/22 14:02:17;;;;;;;12.48;1.83;;;;;;;;;;5051568;28;20503;-69
2020/12/22 14:04:43;;;;;;;15.82;2.50;;;;;;;;;;5055472;28;20545;-69
2020/12/22 14:07:09;;;;;;;18.60;2.42;;;;;;;;;;5052311;28;20090;-68
2020/12/22 14:09:36;;;;;;;14.60;2.08;;;;;;;;;;5064524;28;20041;-68
2020/12/22 14:12:10;;;;;;;16.02;3.10;;;;;;;;;;5060344;28;20052;-67
2020/12/22 14:14:36;;;;;;;10.77;2.88;;;;;;;;;;5058869;28;20036;-68
2020/12/22 14:17:02;;;;;;;17.30;3.35;;;;;;;;;;5055512;28;20044;-69
2020/12/22 14:19:29;;;;;;;15.88;2.78;;;;;;;;;;5051955;28;20465;-68
2020/12/22 14:21:55;;;;;;;18.80;3.38;;;;;;;;;;5057376;28;20062;-68
2020/12/22 14:24:22;;;;;;;14.85;3.17;;;;;;;;;;5068119;28;20386;-68
2020/12/22 14:26:48;;;;;;;15.18;2.83;;;;;;;;;;5062301;28;20472;-67